Time;durP1;ratioP1;P1;durP2;ratioP2;P2;SDS_P1;SDS_P2;PMS_P1;PMS_P2;Temp;Humidity;BMP_temperature;BMP_pressure;BME280_temperature;BME280_humidity;BME280_pressure;Samples;Min_cycle;Max_cycle;Signal;HPM_P1;HPM_P2
2022/12/01 00:01:07;;;;;;;19.70;17.60;;;7.30;46.00;;;;;;10466662;28;20237;-79
2022/12/01 00:06:14;;;;;;;21.67;18.57;;;7.30;46.00;;;;;;10451866;28;20283;-79
2022/12/01 00:11:17;;;;;;;19.17;17.17;;;7.30;46.00;;;;;;10418453;28;20240;-79
2022/12/01 00:16:22;;;;;;;20.57;17.90;;;7.30;46.00;;;;;;10444558;28;20236;-78
2022/12/01 00:21:26;;;;;;;19.67;17.60;;;7.40;46.10;;;;;;10451265;28;20677;-79
2022/12/01 00:26:29;;;;;;;19.60;17.50;;;7.40;46.00;;;;;;10462027;28;20302;-78
2022/12/01 00:31:34;;;;;;;20.03;17.03;;;7.40;46.20;;;;;;10457487;28;20238;-79
2022/12/01 00:36:38;;;;;;;19.57;17.17;;;7.40;46.00;;;;;;10458823;28;20654;-78
2022/12/01 00:41:41;;;;;;;18.67;16.03;;;7.50;46.10;;;;;;10481831;28;20251;-79
2022/12/01 00:46:45;;;;;;;18.53;16.53;;;7.50;46.00;;;;;;10489033;28;20294;-79
2022/12/01 00:51:48;;;;;;;19.63;17.50;;;7.50;46.00;;;;;;10452672;28;20245;-79
2022/12/01 00:56:52;;;;;;;20.20;18.10;;;7.50;45.90;;;;;;10473489;28;20740;-78
2022/12/01 01:01:56;;;;;;;20.70;17.60;;;7.50;46.00;;;;;;10452748;28;20228;-78
2022/12/01 01:06:59;;;;;;;19.10;17.00;;;7.50;46.00;;;;;;10451978;28;20231;-78
2022/12/01 01:12:02;;;;;;;19.63;16.97;;;7.50;45.90;;;;;;10469546;28;20237;-79
2022/12/01 01:17:07;;;;;;;20.17;17.83;;;7.50;45.90;;;;;;10435804;28;20606;-78
2022/12/01 01:22:10;;;;;;;19.33;17.27;;;7.50;45.90;;;;;;10489276;28;20274;-79
2022/12/01 01:27:13;;;;;;;18.27;16.23;;;7.40;45.90;;;;;;10437027;28;20616;-78
2022/12/01 01:32:18;;;;;;;18.43;16.53;;;7.40;45.90;;;;;;10468974;28;20232;-79
2022/12/01 01:37:21;;;;;;;18.83;16.20;;;7.40;45.90;;;;;;10462423;28;20233;-79
2022/12/01 01:42:24;;;;;;;18.33;16.43;;;7.40;45.90;;;;;;10475717;28;20232;-78
2022/12/01 01:47:32;;;;;;;18.63;16.73;;;7.40;45.90;;;;;;10470993;28;20954;-79
2022/12/01 01:52:38;;;;;;;17.00;15.13;;;7.40;45.90;;;;;;10443759;28;20234;-79
2022/12/01 01:57:43;;;;;;;17.53;15.63;;;7.40;46.00;;;;;;10462589;28;20241;-79
2022/12/01 02:02:50;;;;;;;19.37;16.27;;;7.40;45.90;;;;;;10457356;28;20237;-79
2022/12/01 02:07:56;;;;;;;18.83;16.17;;;7.40;45.90;;;;;;10450759;28;20236;-79
2022/12/01 02:13:11;;;;;;;18.47;15.77;;;7.30;45.80;;;;;;10480595;28;20236;-79
2022/12/01 02:18:34;;;;;;;20.10;16.70;;;7.40;45.90;;;;;;10474701;28;20232;-79
2022/12/01 02:24:23;;;;;;;18.57;16.57;;;7.40;45.80;;;;;;10430677;28;20303;-78
2022/12/01 02:30:02;;;;;;;18.63;16.00;;;7.40;45.90;;;;;;10400891;28;20237;-78
2022/12/01 02:35:14;;;;;;;17.73;15.83;;;7.30;45.90;;;;;;10432214;28;20231;-78
2022/12/01 02:40:24;;;;;;;19.03;17.03;;;7.30;46.00;;;;;;10478775;28;20236;-79
2022/12/01 02:45:34;;;;;;;17.23;15.03;;;7.30;45.90;;;;;;10468833;28;20286;-79
2022/12/01 02:50:40;;;;;;;17.10;15.27;;;7.40;46.00;;;;;;10452966;28;20236;-78
2022/12/01 02:55:51;;;;;;;17.70;15.67;;;7.30;46.00;;;;;;10454150;28;20233;-78
2022/12/01 03:01:29;;;;;;;18.43;15.90;;;7.40;46.10;;;;;;10441854;28;20733;-78
2022/12/01 03:06:43;;;;;;;18.17;15.90;;;7.40;46.00;;;;;;10450038;28;20240;-78
2022/12/01 03:11:58;;;;;;;17.70;15.47;;;7.40;46.10;;;;;;10447879;28;20241;-79
2022/12/01 03:17:07;;;;;;;16.50;14.80;;;7.40;46.20;;;;;;10486439;28;20228;-79
2022/12/01 03:22:14;;;;;;;18.10;15.63;;;7.40;46.20;;;;;;10467832;28;20237;-79
2022/12/01 03:27:21;;;;;;;19.13;16.07;;;7.40;46.10;;;;;;10464533;28;20237;-78
2022/12/01 03:32:28;;;;;;;19.07;16.20;;;7.50;46.10;;;;;;10437265;28;20240;-78
2022/12/01 03:37:38;;;;;;;17.80;15.53;;;7.50;46.00;;;;;;10446767;28;20228;-79
2022/12/01 03:42:44;;;;;;;18.37;15.77;;;7.40;46.00;;;;;;10459624;28;20610;-78
2022/12/01 03:47:47;;;;;;;19.17;15.47;;;7.40;46.10;;;;;;10442004;28;20737;-79
2022/12/01 03:53:00;;;;;;;19.57;16.37;;;7.50;46.20;;;;;;10465402;28;20247;-78
2022/12/01 03:58:08;;;;;;;16.67;14.97;;;7.50;46.30;;;;;;10479516;28;20237;-78
2022/12/01 04:03:18;;;;;;;18.77;16.07;;;7.50;46.30;;;;;;10442800;28;20232;-77
2022/12/01 04:08:23;;;;;;;17.80;15.90;;;7.50;46.30;;;;;;10454341;28;20260;-77
2022/12/01 04:13:26;;;;;;;18.57;15.80;;;7.50;46.20;;;;;;10456599;28;20607;-78
2022/12/01 04:18:29;;;;;;;17.70;15.67;;;7.50;46.10;;;;;;10441175;28;20229;-77
2022/12/01 04:28:54;;;;;;;18.57;16.40;;;7.60;46.10;;;;;;10435639;28;20229;-77
2022/12/01 04:33:58;;;;;;;18.37;15.93;;;7.60;46.10;;;;;;10454064;28;20610;-77
2022/12/01 04:39:02;;;;;;;17.90;16.00;;;7.60;46.20;;;;;;10435866;28;20236;-77
2022/12/01 04:44:06;;;;;;;18.03;15.13;;;7.60;46.20;;;;;;10442716;28;20720;-77
2022/12/01 04:49:09;;;;;;;17.67;15.80;;;7.60;46.10;;;;;;10433499;28;20283;-77
2022/12/01 04:54:14;;;;;;;17.97;15.40;;;7.60;46.10;;;;;;10452927;28;20255;-77
2022/12/01 04:59:17;;;;;;;19.30;16.60;;;7.60;46.10;;;;;;10455207;28;20248;-77
2022/12/01 05:04:20;;;;;;;18.43;16.37;;;7.70;46.50;;;;;;10445336;28;20278;-77
2022/12/01 05:09:24;;;;;;;18.13;16.17;;;7.70;46.10;;;;;;10445831;28;20243;-77
2022/12/01 05:14:28;;;;;;;17.97;16.07;;;7.70;46.00;;;;;;10485558;28;20306;-77
2022/12/01 05:24:53;;;;;;;18.87;15.60;;;7.70;46.00;;;;;;10430198;28;20241;-76
2022/12/01 05:29:56;;;;;;;17.63;14.93;;;7.60;45.80;;;;;;10430310;28;20625;-76
2022/12/01 05:34:59;;;;;;;16.00;14.03;;;7.60;45.90;;;;;;10428967;28;20233;-76
2022/12/01 05:40:05;;;;;;;18.33;15.33;;;7.60;45.90;;;;;;10434105;28;20237;-76
2022/12/01 05:45:08;;;;;;;16.53;14.77;;;7.60;45.90;;;;;;10438627;28;20232;-76
2022/12/01 05:50:12;;;;;;;16.40;14.57;;;7.60;45.80;;;;;;10432802;28;20238;-76
2022/12/01 05:55:16;;;;;;;16.30;14.43;;;7.60;45.80;;;;;;10438957;28;20221;-76
2022/12/01 06:00:20;;;;;;;16.97;14.83;;;7.60;45.90;;;;;;10434121;28;20238;-77
2022/12/01 06:05:25;;;;;;;17.57;15.47;;;7.50;45.90;;;;;;10439373;28;20241;-77
2022/12/01 06:10:29;;;;;;;16.67;14.50;;;7.50;45.90;;;;;;10442047;28;20240;-77
2022/12/01 06:15:32;;;;;;;17.10;14.87;;;7.50;45.80;;;;;;10477193;28;20236;-77
2022/12/01 06:20:35;;;;;;;17.00;14.77;;;7.50;45.80;;;;;;10443322;28;20241;-77
2022/12/01 06:25:40;;;;;;;18.43;15.43;;;7.50;45.80;;;;;;10447350;28;20233;-78
2022/12/01 06:30:43;;;;;;;17.17;14.90;;;7.50;48.20;;;;;;10456197;28;20593;-78
2022/12/01 06:35:46;;;;;;;17.17;15.07;;;7.60;47.50;;;;;;10457165;28;20306;-78
2022/12/01 06:40:51;;;;;;;18.80;16.37;;;7.70;46.80;;;;;;10458116;28;20240;-78
2022/12/01 06:45:54;;;;;;;17.07;15.13;;;7.70;46.20;;;;;;10461418;28;20244;-78
2022/12/01 06:51:04;;;;;;;19.70;15.83;;;7.70;46.10;;;;;;10459980;28;20377;-78
2022/12/01 06:56:09;;;;;;;19.10;16.03;;;7.70;46.10;;;;;;10460680;28;20240;-78
2022/12/01 07:01:13;;;;;;;15.87;14.03;;;7.70;45.90;;;;;;10460745;28;20286;-78
2022/12/01 07:06:16;;;;;;;17.73;15.83;;;7.60;45.70;;;;;;10459541;28;20229;-78
2022/12/01 07:11:21;;;;;;;18.37;15.63;;;7.60;45.70;;;;;;10458408;28;20233;-79
2022/12/01 07:16:25;;;;;;;17.63;15.10;;;7.60;45.80;;;;;;10457678;28;20220;-79
2022/12/01 07:21:28;;;;;;;18.10;15.17;;;7.50;45.70;;;;;;10457084;28;20736;-78
2022/12/01 07:26:33;;;;;;;18.60;15.73;;;7.50;45.70;;;;;;10457419;28;20233;-78
2022/12/01 07:31:37;;;;;;;18.13;16.13;;;7.50;45.80;;;;;;10462682;28;20237;-79
2022/12/01 07:36:40;;;;;;;19.97;16.93;;;7.50;45.90;;;;;;10463801;28;20705;-80
2022/12/01 07:41:45;;;;;;;20.17;17.20;;;7.50;45.80;;;;;;10464311;28;20241;-79
2022/12/01 07:46:49;;;;;;;20.33;16.93;;;7.40;45.80;;;;;;10465904;28;20243;-79
2022/12/01 07:51:52;;;;;;;19.30;16.23;;;7.40;45.90;;;;;;10463626;28;20241;-79
2022/12/01 07:56:57;;;;;;;16.57;14.83;;;7.40;46.00;;;;;;10461662;28;20236;-80
2022/12/01 08:02:00;;;;;;;19.73;16.47;;;7.40;46.00;;;;;;10462535;28;20240;-79
2022/12/01 08:07:03;;;;;;;20.23;16.63;;;7.50;46.00;;;;;;10463959;28;20237;-80
2022/12/01 08:12:09;;;;;;;20.33;16.40;;;7.50;45.90;;;;;;10461000;28;20249;-79
2022/12/01 08:17:12;;;;;;;19.10;16.47;;;7.50;45.90;;;;;;10461892;28;20229;-79
2022/12/01 08:22:15;;;;;;;18.77;16.77;;;7.50;45.90;;;;;;10461998;28;20771;-80
2022/12/01 08:27:20;;;;;;;17.37;15.17;;;7.50;45.90;;;;;;10446172;28;20303;-77
2022/12/01 08:32:28;;;;;;;18.30;16.23;;;7.50;46.00;;;;;;10433810;28;20233;-80
2022/12/01 08:37:31;;;;;;;18.87;15.87;;;7.50;46.00;;;;;;10413104;28;20237;-78
2022/12/01 08:42:36;;;;;;;18.00;15.23;;;7.50;46.10;;;;;;10432931;28;20306;-79
2022/12/01 08:47:40;;;;;;;20.33;16.80;;;7.60;46.30;;;;;;10447026;28;20239;-79
2022/12/01 08:52:44;;;;;;;18.40;15.97;;;7.60;46.40;;;;;;10439873;28;20326;-78
2022/12/01 08:57:49;;;;;;;20.80;17.40;;;7.70;46.30;;;;;;10442719;28;20233;-79
2022/12/01 09:02:52;;;;;;;20.60;17.93;;;7.80;46.20;;;;;;10434960;28;20248;-78
2022/12/01 09:13:14;;;;;;;18.00;16.10;;;7.90;46.10;;;;;;10425009;28;20311;-79
2022/12/01 09:18:17;;;;;;;17.97;15.80;;;7.90;46.10;;;;;;10448701;28;20231;-78
2022/12/01 09:23:20;;;;;;;16.50;14.67;;;7.90;46.00;;;;;;10445550;28;20232;-79
2022/12/01 09:28:25;;;;;;;17.60;15.60;;;8.00;46.20;;;;;;10438557;28;20236;-78
2022/12/01 09:33:28;;;;;;;18.27;16.33;;;8.00;46.20;;;;;;10444628;28;20237;-79
2022/12/01 09:38:32;;;;;;;18.13;16.17;;;8.10;46.30;;;;;;10433091;28;20662;-79
2022/12/01 09:43:41;;;;;;;18.43;15.53;;;8.10;46.10;;;;;;10439209;28;20839;-78
2022/12/01 09:48:46;;;;;;;17.63;15.10;;;8.20;46.00;;;;;;10444035;28;20237;-80
2022/12/01 09:53:52;;;;;;;17.37;15.53;;;8.30;46.20;;;;;;10418534;28;20232;-76
2022/12/01 09:58:58;;;;;;;17.53;15.27;;;8.30;46.30;;;;;;10416110;28;20246;-76
2022/12/01 10:04:09;;;;;;;18.63;15.57;;;8.40;46.10;;;;;;10415092;28;20237;-77
2022/12/01 10:09:22;;;;;;;17.63;15.43;;;8.50;46.30;;;;;;10424846;28;20250;-76
2022/12/01 10:14:29;;;;;;;15.07;13.50;;;8.60;46.10;;;;;;10429960;28;20283;-76
2022/12/01 10:19:39;;;;;;;15.87;14.27;;;8.70;46.20;;;;;;10458139;28;20225;-76
2022/12/01 10:24:53;;;;;;;15.43;13.67;;;8.70;46.00;;;;;;10435465;28;20612;-75
2022/12/01 10:30:05;;;;;;;16.53;14.77;;;8.90;45.90;;;;;;10410864;28;20246;-75
2022/12/01 10:35:11;;;;;;;15.80;14.10;;;9.00;46.00;;;;;;10411468;28;20257;-75
2022/12/01 10:40:16;;;;;;;15.73;13.93;;;9.00;46.00;;;;;;10412986;28;20233;-76
2022/12/01 10:45:24;;;;;;;17.50;15.27;;;9.00;46.00;;;;;;10413739;28;20237;-75
2022/12/01 10:50:28;;;;;;;16.80;15.00;;;9.10;45.70;;;;;;10411034;28;20237;-75
2022/12/01 10:55:34;;;;;;;18.27;15.80;;;9.10;45.90;;;;;;10445897;28;20236;-76
2022/12/01 11:00:43;;;;;;;18.60;15.77;;;9.10;45.90;;;;;;10447142;28;20237;-76
2022/12/01 11:06:04;;;;;;;17.37;15.57;;;9.20;45.50;;;;;;10449721;28;20704;-76
2022/12/01 11:11:30;;;;;;;19.80;17.23;;;9.20;45.60;;;;;;10449039;28;20236;-76
2022/12/01 11:16:38;;;;;;;18.37;16.43;;;9.20;44.80;;;;;;10450359;28;20580;-76
2022/12/01 11:21:46;;;;;;;18.03;16.03;;;9.20;45.10;;;;;;10490627;28;20314;-77
2022/12/01 11:26:50;;;;;;;19.87;15.80;;;9.10;45.20;;;;;;10427886;28;20241;-75
2022/12/01 11:31:55;;;;;;;18.37;16.40;;;9.20;45.40;;;;;;10435762;28;20233;-79
2022/12/01 11:37:01;;;;;;;17.17;15.37;;;9.10;45.20;;;;;;10433435;28;20234;-77
2022/12/01 11:42:06;;;;;;;17.43;15.27;;;9.10;45.40;;;;;;10435370;28;20249;-76
2022/12/01 11:47:16;;;;;;;15.80;14.20;;;9.20;45.50;;;;;;10438235;28;20236;-77
2022/12/01 11:52:31;;;;;;;15.40;13.83;;;9.20;45.10;;;;;;10440513;28;20268;-80
2022/12/01 11:57:34;;;;;;;16.63;14.80;;;9.20;45.50;;;;;;10426625;28;20217;-78
2022/12/01 12:02:45;;;;;;;16.23;14.47;;;9.30;45.60;;;;;;10433426;28;20764;-79
2022/12/01 12:07:58;;;;;;;16.17;14.47;;;9.20;45.00;;;;;;10446835;28;20245;-77
2022/12/01 12:13:18;;;;;;;17.77;15.93;;;9.30;45.20;;;;;;10448760;28;20247;-78
2022/12/01 12:18:49;;;;;;;17.43;15.63;;;9.20;44.80;;;;;;10441252;28;20234;-77
2022/12/01 12:24:19;;;;;;;17.43;15.60;;;9.30;45.00;;;;;;10422982;28;20232;-79
2022/12/01 12:29:40;;;;;;;21.53;19.23;;;9.20;45.00;;;;;;10430194;28;20240;-79
2022/12/01 12:34:52;;;;;;;19.20;16.67;;;9.20;45.00;;;;;;10453133;28;20239;-78
2022/12/01 12:40:16;;;;;;;17.70;15.17;;;9.30;45.10;;;;;;10445446;28;20608;-79
2022/12/01 12:45:25;;;;;;;17.77;15.37;;;9.20;44.90;;;;;;10432776;28;20229;-78
2022/12/01 12:50:39;;;;;;;18.37;15.07;;;9.30;45.20;;;;;;10433435;28;20240;-78
2022/12/01 12:55:46;;;;;;;16.47;14.73;;;9.30;45.00;;;;;;10433577;28;20230;-78
2022/12/01 13:00:54;;;;;;;15.17;13.67;;;9.20;45.00;;;;;;10435497;28;20240;-79
2022/12/01 13:06:02;;;;;;;16.07;13.80;;;9.20;45.00;;;;;;10437869;28;20240;-78
2022/12/01 13:11:13;;;;;;;16.57;14.50;;;9.20;44.80;;;;;;10435934;28;20264;-78
2022/12/01 13:16:19;;;;;;;15.73;14.03;;;9.20;44.90;;;;;;10434471;28;20228;-78
2022/12/01 13:21:24;;;;;;;16.80;15.00;;;9.20;45.00;;;;;;10435070;28;20240;-78
2022/12/01 13:26:27;;;;;;;16.00;14.30;;;9.10;45.00;;;;;;10440419;28;20257;-78
2022/12/01 13:31:42;;;;;;;16.90;15.10;;;9.10;45.20;;;;;;10436920;28;20228;-78
2022/12/01 13:36:50;;;;;;;21.27;16.63;;;9.10;45.00;;;;;;10434551;28;20955;-79
2022/12/01 13:42:00;;;;;;;17.67;15.47;;;9.10;45.10;;;;;;10435753;28;20225;-78
2022/12/01 13:47:25;;;;;;;17.67;15.07;;;9.10;45.20;;;;;;10436675;28;20232;-78
2022/12/01 13:52:32;;;;;;;18.73;16.33;;;9.00;45.30;;;;;;10439921;28;20748;-78
2022/12/01 13:57:37;;;;;;;18.83;16.53;;;9.00;45.30;;;;;;10437818;28;20233;-78
2022/12/01 14:02:42;;;;;;;19.30;16.67;;;9.00;45.40;;;;;;10435195;28;20244;-78
2022/12/01 14:07:46;;;;;;;19.93;16.63;;;9.00;45.40;;;;;;10436035;28;20239;-78
2022/12/01 14:12:51;;;;;;;19.60;17.13;;;8.90;45.30;;;;;;10426947;28;20265;-78
2022/12/01 14:18:01;;;;;;;19.00;16.90;;;8.90;45.40;;;;;;10432020;28;20264;-78
2022/12/01 14:23:16;;;;;;;20.77;18.47;;;8.90;45.30;;;;;;10428913;28;20595;-78
2022/12/01 14:28:57;;;;;;;20.37;18.00;;;8.90;45.20;;;;;;10433912;28;20259;-78
2022/12/01 14:34:03;;;;;;;20.17;17.13;;;8.80;45.30;;;;;;10439847;28;20234;-78
2022/12/01 14:39:12;;;;;;;19.17;16.90;;;8.80;45.50;;;;;;10445983;28;20279;-78
2022/12/01 14:44:23;;;;;;;20.30;17.20;;;8.80;45.80;;;;;;10436127;28;20240;-78
2022/12/01 14:49:32;;;;;;;19.33;17.30;;;8.80;45.60;;;;;;10446193;28;21854;-78
2022/12/01 14:54:44;;;;;;;20.60;18.37;;;8.80;45.60;;;;;;10437951;28;20237;-76
2022/12/01 15:00:02;;;;;;;18.00;15.63;;;8.80;45.80;;;;;;10442479;28;20239;-77
2022/12/01 15:05:10;;;;;;;15.90;13.27;;;8.80;45.90;;;;;;10442968;28;20244;-79
2022/12/01 15:10:18;;;;;;;19.90;17.10;;;8.80;47.70;;;;;;10441130;28;20233;-78
2022/12/01 15:15:23;;;;;;;20.30;16.90;;;8.90;46.80;;;;;;10445543;28;21012;-81
2022/12/01 15:20:32;;;;;;;17.67;15.77;;;9.00;46.10;;;;;;10442471;28;20233;-80
2022/12/01 15:25:36;;;;;;;21.37;17.17;;;9.00;46.00;;;;;;10441823;28;20654;-80
2022/12/01 15:30:41;;;;;;;19.77;16.73;;;9.10;46.10;;;;;;10441777;28;20233;-80
2022/12/01 15:35:46;;;;;;;20.93;16.83;;;9.10;45.80;;;;;;10437937;28;20237;-79
2022/12/01 15:40:50;;;;;;;17.27;15.50;;;9.10;45.80;;;;;;10439169;28;20241;-80
2022/12/01 15:46:16;;;;;;;19.07;16.80;;;9.00;45.80;;;;;;10443843;28;20225;-78
2022/12/01 15:51:27;;;;;;;18.33;16.33;;;9.00;46.40;;;;;;10438679;28;20231;-78
2022/12/01 15:56:35;;;;;;;19.07;16.67;;;9.00;47.00;;;;;;10424721;23;20720;-75
2022/12/01 16:01:40;;;;;;;21.10;18.43;;;9.10;46.20;;;;;;10421532;28;20295;-70
2022/12/01 16:06:54;;;;;;;21.10;18.63;;;9.20;46.20;;;;;;10418562;28;20233;-74
2022/12/01 16:12:22;;;;;;;20.17;17.67;;;9.20;45.80;;;;;;10421284;28;20236;-74
2022/12/01 16:17:26;;;;;;;20.37;17.27;;;9.20;45.70;;;;;;10418520;28;20229;-71
2022/12/01 16:22:31;;;;;;;20.23;17.47;;;9.10;45.90;;;;;;10419092;28;20229;-71
2022/12/01 16:27:36;;;;;;;19.43;17.33;;;9.10;46.10;;;;;;10413672;28;20709;-70
2022/12/01 16:32:41;;;;;;;18.23;16.00;;;9.10;46.10;;;;;;10414547;28;20295;-67
2022/12/01 16:37:46;;;;;;;19.03;17.07;;;9.10;46.10;;;;;;10415613;28;20233;-67
2022/12/01 16:42:49;;;;;;;17.97;15.53;;;9.10;46.10;;;;;;10412823;28;20748;-67
2022/12/01 16:47:52;;;;;;;22.50;19.93;;;9.10;46.10;;;;;;10412458;28;20225;-69
2022/12/01 16:52:57;;;;;;;21.40;19.00;;;9.10;46.10;;;;;;10414397;28;20233;-69
2022/12/01 16:58:00;;;;;;;19.33;17.23;;;9.20;46.20;;;;;;10414758;28;20240;-69
2022/12/01 17:03:04;;;;;;;18.87;15.60;;;9.10;46.10;;;;;;10419641;28;20275;-70
2022/12/01 17:08:09;;;;;;;20.83;16.70;;;9.20;46.10;;;;;;10414475;28;20308;-70
2022/12/01 17:13:13;;;;;;;20.07;17.97;;;9.20;46.10;;;;;;10414615;28;20225;-67
2022/12/01 17:18:18;;;;;;;20.60;18.33;;;9.20;46.00;;;;;;10412173;28;20221;-67
2022/12/01 17:23:22;;;;;;;18.20;15.90;;;9.20;46.00;;;;;;10415227;28;20717;-70
2022/12/01 17:28:26;;;;;;;22.00;18.27;;;9.20;46.10;;;;;;10413200;28;20236;-70
2022/12/01 17:33:29;;;;;;;22.97;20.33;;;9.10;46.00;;;;;;10414338;28;20225;-69
2022/12/01 17:38:36;;;;;;;24.20;18.30;;;9.10;46.00;;;;;;10411761;28;20250;-69
2022/12/01 17:43:39;;;;;;;21.93;18.27;;;9.10;45.90;;;;;;10417086;28;20220;-70
2022/12/01 17:48:44;;;;;;;20.87;18.17;;;9.10;45.90;;;;;;10420085;28;21037;-70
2022/12/01 17:53:49;;;;;;;19.57;15.67;;;9.10;45.60;;;;;;10415392;28;20228;-67
2022/12/01 17:58:52;;;;;;;16.93;15.03;;;9.10;45.50;;;;;;10410458;28;20232;-67
2022/12/01 18:03:57;;;;;;;18.57;16.57;;;9.10;45.70;;;;;;10420010;28;20587;-67
2022/12/01 18:09:02;;;;;;;18.60;16.63;;;9.10;45.80;;;;;;10418557;28;20257;-69
2022/12/01 18:14:05;;;;;;;18.93;16.47;;;9.10;45.70;;;;;;10415363;28;20248;-70
2022/12/01 18:19:09;;;;;;;18.63;16.63;;;9.10;45.70;;;;;;10416818;28;20248;-70
2022/12/01 18:24:13;;;;;;;16.47;14.77;;;9.10;45.80;;;;;;10420828;28;20287;-70
2022/12/01 18:29:24;;;;;;;18.77;16.83;;;9.00;45.60;;;;;;10420766;28;20761;-75
2022/12/01 18:34:29;;;;;;;18.87;16.47;;;9.00;45.70;;;;;;10424927;28;20228;-71
2022/12/01 18:39:34;;;;;;;19.27;17.23;;;9.00;45.70;;;;;;10422724;28;20230;-71
2022/12/01 18:44:38;;;;;;;18.80;16.83;;;9.00;45.60;;;;;;10424190;28;20229;-75
2022/12/01 18:49:41;;;;;;;18.43;16.40;;;9.00;45.90;;;;;;10424273;28;20287;-71
2022/12/01 18:54:45;;;;;;;18.20;16.30;;;9.00;46.00;;;;;;10424096;28;20257;-71
2022/12/01 18:59:49;;;;;;;20.20;18.10;;;9.00;46.00;;;;;;10426249;28;20854;-71
2022/12/01 19:04:52;;;;;;;22.33;18.50;;;9.00;46.00;;;;;;10423080;28;20234;-71
2022/12/01 19:09:57;;;;;;;21.20;18.70;;;9.00;45.90;;;;;;10425138;28;20706;-76
2022/12/01 19:15:00;;;;;;;22.27;19.97;;;9.00;45.80;;;;;;10435016;28;20233;-76
2022/12/01 19:20:04;;;;;;;18.30;16.20;;;9.00;46.00;;;;;;10424402;28;20642;-75
2022/12/01 19:25:10;;;;;;;19.33;16.87;;;9.00;46.00;;;;;;10425566;28;20217;-69
2022/12/01 19:30:13;;;;;;;19.00;16.83;;;9.00;46.00;;;;;;10425785;28;20701;-68
2022/12/01 19:35:17;;;;;;;18.37;16.47;;;9.00;46.00;;;;;;10420886;28;20313;-68
2022/12/01 19:40:21;;;;;;;18.07;16.13;;;9.00;46.00;;;;;;10422008;28;20236;-68
2022/12/01 19:45:26;;;;;;;19.73;17.30;;;9.10;46.10;;;;;;10418140;28;20234;-73
2022/12/01 19:50:29;;;;;;;18.10;16.20;;;9.10;46.10;;;;;;10414821;28;20318;-71
2022/12/01 19:55:36;;;;;;;18.30;15.97;;;9.10;46.10;;;;;;10420316;28;20602;-70
2022/12/01 20:00:39;;;;;;;21.73;16.73;;;9.10;46.10;;;;;;10422542;28;20236;-70
2022/12/01 20:05:42;;;;;;;20.07;17.97;;;9.10;46.10;;;;;;10416354;28;20626;-70
2022/12/01 20:10:48;;;;;;;17.73;15.83;;;9.00;46.00;;;;;;10415912;28;20233;-70
2022/12/01 20:15:51;;;;;;;20.07;17.37;;;9.00;46.00;;;;;;10415098;28;20228;-71
2022/12/01 20:21:02;;;;;;;18.40;16.40;;;9.10;46.10;;;;;;10418299;28;20241;-71
2022/12/01 20:26:07;;;;;;;17.93;16.03;;;9.00;46.00;;;;;;10416872;28;20222;-71
2022/12/01 20:31:14;;;;;;;19.53;16.97;;;9.00;46.00;;;;;;10416991;28;20883;-68
2022/12/01 20:36:17;;;;;;;19.17;17.03;;;9.00;46.00;;;;;;10416706;28;20227;-68
2022/12/01 20:41:22;;;;;;;19.30;17.07;;;9.00;46.00;;;;;;10420820;28;20236;-68
2022/12/01 20:46:26;;;;;;;20.17;17.20;;;9.00;46.00;;;;;;10416218;28;20241;-68
2022/12/01 20:51:31;;;;;;;20.70;18.10;;;9.00;46.00;;;;;;10415267;28;20233;-68
2022/12/01 20:56:36;;;;;;;19.03;17.03;;;9.00;46.00;;;;;;10417618;28;20261;-68
2022/12/01 21:01:39;;;;;;;16.67;14.37;;;9.00;46.00;;;;;;10414976;28;20230;-70
2022/12/01 21:06:43;;;;;;;18.53;16.43;;;9.00;46.00;;;;;;10406072;28;20229;-71
2022/12/01 21:17:21;;;;;;;21.50;18.03;;;9.10;46.10;;;;;;10414413;28;20311;-71
2022/12/01 21:22:25;;;;;;;19.43;17.40;;;9.10;46.10;;;;;;10413388;28;20587;-71
2022/12/01 21:27:30;;;;;;;20.93;17.30;;;9.10;46.10;;;;;;10413675;28;20229;-71
2022/12/01 21:32:35;;;;;;;20.67;18.47;;;9.10;46.10;;;;;;10414082;28;20237;-68
2022/12/01 21:37:46;;;;;;;19.10;16.90;;;9.10;46.10;;;;;;10410593;28;20928;-68
2022/12/01 21:42:51;;;;;;;19.53;17.47;;;9.10;46.10;;;;;;10416899;28;20235;-70
2022/12/01 21:48:01;;;;;;;20.30;18.07;;;9.10;46.10;;;;;;10416495;28;20237;-70
2022/12/01 21:53:12;;;;;;;21.07;18.33;;;9.10;46.10;;;;;;10418558;28;20282;-71
2022/12/01 21:58:36;;;;;;;20.60;17.80;;;9.10;46.10;;;;;;10420826;28;20221;-71
2022/12/01 22:03:43;;;;;;;20.40;17.10;;;9.00;46.00;;;;;;10420881;28;20608;-68
2022/12/01 22:08:49;;;;;;;18.80;16.77;;;9.10;46.10;;;;;;10421789;28;20252;-76
2022/12/01 22:13:59;;;;;;;19.80;17.70;;;9.00;46.00;;;;;;10419786;28;20240;-68
2022/12/01 22:19:20;;;;;;;20.40;18.27;;;9.00;46.00;;;;;;10417419;28;20234;-70
2022/12/01 22:24:26;;;;;;;16.63;14.93;;;9.10;46.10;;;;;;10419766;28;20229;-71
2022/12/01 22:29:33;;;;;;;20.43;17.13;;;9.10;46.10;;;;;;10423588;28;20332;-71
2022/12/01 22:34:37;;;;;;;19.30;17.30;;;9.10;46.10;;;;;;10415635;28;20226;-68
2022/12/01 22:39:40;;;;;;;22.00;19.27;;;9.10;46.10;;;;;;10415642;28;20293;-68
2022/12/01 22:44:45;;;;;;;19.83;17.63;;;9.10;46.10;;;;;;10415966;28;20245;-68
2022/12/01 22:49:48;;;;;;;17.93;16.00;;;9.10;46.10;;;;;;10413195;28;20234;-68
2022/12/01 22:54:51;;;;;;;21.87;19.10;;;9.00;46.00;;;;;;10414108;28;20232;-70
2022/12/01 22:59:56;;;;;;;21.73;19.43;;;9.10;46.10;;;;;;10416379;28;20233;-76
2022/12/01 23:05:01;;;;;;;22.53;19.43;;;9.00;46.00;;;;;;10418348;28;20299;-76
2022/12/01 23:10:14;;;;;;;20.80;18.47;;;9.00;46.00;;;;;;10419359;28;20733;-68
2022/12/01 23:15:26;;;;;;;22.97;19.80;;;9.00;46.00;;;;;;10414552;28;20225;-68
2022/12/01 23:20:32;;;;;;;21.17;18.90;;;9.00;46.00;;;;;;10418093;28;20273;-76
2022/12/01 23:25:35;;;;;;;23.43;19.83;;;9.00;46.00;;;;;;10416509;28;20222;-76
2022/12/01 23:30:43;;;;;;;22.23;19.87;;;9.00;46.00;;;;;;10429403;28;20244;-76
2022/12/01 23:35:51;;;;;;;24.07;20.63;;;8.90;46.10;;;;;;10415909;28;20642;-76
2022/12/01 23:40:59;;;;;;;21.90;19.40;;;8.90;46.10;;;;;;10424089;28;20641;-70
2022/12/01 23:46:08;;;;;;;21.90;19.50;;;8.90;46.20;;;;;;10419628;28;20328;-70
2022/12/01 23:51:15;;;;;;;20.13;18.00;;;8.90;46.20;;;;;;10420190;28;20245;-70
2022/12/01 23:56:21;;;;;;;21.93;19.63;;;8.90;46.30;;;;;;10418417;28;20225;-70
